Time;durP1;ratioP1;P1;durP2;ratioP2;P2;SDS_P1;SDS_P2;PMS_P1;PMS_P2;Temp;Humidity;BMP_temperature;BMP_pressure;BME280_temperature;BME280_humidity;BME280_pressure;Samples;Min_cycle;Max_cycle;Signal;HPM_P1;HPM_P2
2023/06/13 00:00:54;;;;;;;3.40;3.10;;;23.60;99.90;;;;;;5021385;28;20206;-60
2023/06/13 00:03:21;;;;;;;5.13;3.83;;;23.60;99.90;;;;;;5010791;28;20204;-62
2023/06/13 00:05:51;;;;;;;4.80;3.40;;;23.50;99.90;;;;;;5018991;28;20248;-60
2023/06/13 00:08:18;;;;;;;6.77;3.70;;;23.60;99.90;;;;;;5021571;28;20521;-63
2023/06/13 00:10:46;;;;;;;4.40;3.10;;;23.40;99.90;;;;;;5022557;28;20322;-60
2023/06/13 00:13:15;;;;;;;4.07;3.67;;;23.50;99.90;;;;;;5023578;28;20243;-61
2023/06/13 00:15:54;;;;;;;3.70;3.13;;;23.30;99.90;;;;;;5022872;28;20220;-60
2023/06/13 00:18:22;;;;;;;3.93;3.50;;;23.40;99.90;;;;;;5016856;28;20200;-60
2023/06/13 00:20:52;;;;;;;5.53;3.70;;;23.30;99.90;;;;;;5022940;28;20208;-60
2023/06/13 00:23:18;;;;;;;5.43;3.37;;;23.30;99.90;;;;;;5019229;28;20208;-60
2023/06/13 00:25:46;;;;;;;5.10;3.50;;;23.40;99.90;;;;;;5018013;28;20295;-62
2023/06/13 00:28:13;;;;;;;3.33;2.97;;;23.30;99.90;;;;;;5021865;28;20216;-61
2023/06/13 00:30:40;;;;;;;4.10;3.30;;;23.20;99.90;;;;;;5020107;28;20623;-61
2023/06/13 00:33:17;;;;;;;5.20;3.30;;;23.30;99.90;;;;;;5022519;28;20247;-61
2023/06/13 00:35:45;;;;;;;4.53;3.77;;;23.20;99.90;;;;;;5017886;28;20223;-61
2023/06/13 00:38:12;;;;;;;3.97;3.37;;;23.30;99.90;;;;;;5022588;28;20829;-61
2023/06/13 00:40:40;;;;;;;5.33;3.70;;;23.20;99.90;;;;;;5020517;28;20680;-63
2023/06/13 00:43:07;;;;;;;4.10;3.70;;;23.20;99.90;;;;;;5015287;28;20367;-61
2023/06/13 00:45:34;;;;;;;6.00;4.13;;;23.10;99.90;;;;;;5015216;28;20201;-61
2023/06/13 00:48:05;;;;;;;3.77;3.40;;;23.00;99.90;;;;;;5015173;28;20673;-60
2023/06/13 00:50:35;;;;;;;6.47;3.53;;;23.00;99.90;;;;;;5012880;28;20218;-61
2023/06/13 00:53:09;;;;;;;5.27;3.53;;;22.90;99.90;;;;;;5017800;28;20204;-61
2023/06/13 00:55:37;;;;;;;4.10;3.70;;;22.90;99.90;;;;;;5016308;28;20704;-61
2023/06/13 00:58:07;;;;;;;7.03;4.17;;;22.90;99.90;;;;;;5014480;28;20204;-61
2023/06/13 01:00:35;;;;;;;4.80;3.70;;;23.00;99.90;;;;;;5011435;28;20362;-62
2023/06/13 01:03:07;;;;;;;5.83;3.80;;;23.00;99.90;;;;;;5016759;28;20232;-60
2023/06/13 01:05:34;;;;;;;4.50;3.70;;;22.80;99.90;;;;;;5017153;28;20256;-60
2023/06/13 01:08:09;;;;;;;4.60;3.47;;;22.80;99.90;;;;;;5018439;28;20258;-61
2023/06/13 01:10:40;;;;;;;4.47;3.73;;;22.80;99.90;;;;;;5018091;28;20338;-60
2023/06/13 01:13:16;;;;;;;4.63;3.67;;;22.70;99.90;;;;;;5021243;28;20223;-62
2023/06/13 01:15:59;;;;;;;5.67;4.07;;;22.70;99.90;;;;;;5018478;28;20900;-61
2023/06/13 01:18:30;;;;;;;4.33;3.40;;;22.70;99.90;;;;;;5018949;28;20215;-61
2023/06/13 01:21:00;;;;;;;4.47;3.73;;;22.70;99.90;;;;;;5023250;28;20201;-61
2023/06/13 01:23:36;;;;;;;6.87;4.07;;;22.60;99.90;;;;;;5020971;28;20204;-61
2023/06/13 01:26:33;;;;;;;4.77;3.67;;;22.50;99.90;;;;;;5021608;28;20564;-62
2023/06/13 01:29:01;;;;;;;4.27;3.30;;;22.50;99.90;;;;;;5013528;28;20259;-60
2023/06/13 01:31:40;;;;;;;6.80;3.60;;;22.60;99.90;;;;;;5023695;28;20799;-61
2023/06/13 01:34:07;;;;;;;3.53;3.20;;;22.50;99.90;;;;;;5026219;28;20235;-60
2023/06/13 01:36:35;;;;;;;4.80;3.87;;;22.50;99.90;;;;;;5017976;28;20216;-60
2023/06/13 01:39:02;;;;;;;6.20;3.93;;;22.40;99.90;;;;;;5017216;28;20668;-60
2023/06/13 01:41:29;;;;;;;5.53;4.33;;;22.50;99.90;;;;;;5021655;28;20319;-60
2023/06/13 01:43:56;;;;;;;4.37;3.60;;;22.50;99.90;;;;;;5022486;28;20242;-61
2023/06/13 01:46:29;;;;;;;4.53;3.60;;;22.50;99.90;;;;;;5025511;28;20237;-62
2023/06/13 01:49:29;;;;;;;9.00;3.80;;;22.50;99.90;;;;;;5024050;28;20216;-61
2023/06/13 01:52:03;;;;;;;4.03;3.70;;;22.40;99.90;;;;;;5026126;28;20213;-61
2023/06/13 01:54:35;;;;;;;4.73;3.53;;;22.30;99.90;;;;;;5024844;28;20540;-60
2023/06/13 01:57:07;;;;;;;5.97;3.87;;;22.30;99.90;;;;;;5022549;28;20223;-65
2023/06/13 01:59:42;;;;;;;9.03;3.50;;;22.20;99.90;;;;;;5020013;28;20636;-60
2023/06/13 02:02:11;;;;;;;7.07;3.87;;;22.20;99.90;;;;;;5025585;28;20206;-61
2023/06/13 02:04:43;;;;;;;5.87;3.63;;;22.00;99.90;;;;;;5016960;28;20208;-62
2023/06/13 02:07:10;;;;;;;4.03;3.43;;;22.10;99.90;;;;;;5021206;28;20211;-63
2023/06/13 02:09:37;;;;;;;4.97;3.80;;;22.00;99.90;;;;;;5019935;28;20599;-61
2023/06/13 02:12:06;;;;;;;5.67;3.70;;;22.00;99.90;;;;;;5026098;28;20280;-61
2023/06/13 02:14:33;;;;;;;4.03;3.63;;;21.90;99.90;;;;;;5021548;28;20198;-61
2023/06/13 02:17:00;;;;;;;4.60;4.20;;;21.80;99.90;;;;;;5022837;28;20230;-61
2023/06/13 02:19:27;;;;;;;4.57;4.00;;;21.90;99.90;;;;;;5025470;28;20202;-62
2023/06/13 02:21:55;;;;;;;6.13;3.83;;;21.80;99.90;;;;;;5028014;28;20208;-61
2023/06/13 02:24:22;;;;;;;5.87;3.90;;;21.80;99.90;;;;;;5037732;28;20200;-61
2023/06/13 02:26:50;;;;;;;4.77;3.93;;;21.70;99.90;;;;;;5028653;28;20662;-61
2023/06/13 02:29:18;;;;;;;8.33;4.00;;;21.60;99.90;;;;;;5023374;28;20224;-61
2023/06/13 02:31:45;;;;;;;5.03;3.33;;;21.60;99.90;;;;;;5037283;28;20220;-61
2023/06/13 02:34:12;;;;;;;4.87;3.37;;;21.70;99.90;;;;;;5023954;28;20271;-61
2023/06/13 02:36:40;;;;;;;5.97;3.43;;;21.70;99.90;;;;;;5023260;28;20226;-62
2023/06/13 02:39:08;;;;;;;5.30;4.07;;;21.70;99.90;;;;;;5027019;28;20449;-62
2023/06/13 02:41:37;;;;;;;5.60;4.10;;;21.70;99.90;;;;;;5028043;28;20219;-61
2023/06/13 02:44:05;;;;;;;4.37;3.97;;;21.60;99.90;;;;;;5028351;28;20231;-61
2023/06/13 02:46:33;;;;;;;4.50;3.57;;;21.50;99.90;;;;;;5023880;28;20209;-61
2023/06/13 02:49:00;;;;;;;5.90;4.17;;;21.40;99.90;;;;;;5023176;28;20250;-61
2023/06/13 02:51:30;;;;;;;5.97;4.03;;;21.50;99.90;;;;;;5025982;28;20915;-61
2023/06/13 02:53:57;;;;;;;5.23;3.90;;;21.30;99.90;;;;;;5024549;28;20199;-61
2023/06/13 02:56:28;;;;;;;5.70;3.77;;;21.30;99.90;;;;;;5028644;28;20644;-61
2023/06/13 02:58:57;;;;;;;5.53;3.93;;;21.20;99.90;;;;;;5027169;28;20199;-61
2023/06/13 03:01:26;;;;;;;7.63;3.83;;;21.10;99.90;;;;;;5024549;28;20206;-61
2023/06/13 03:03:53;;;;;;;6.53;4.87;;;21.30;99.90;;;;;;5020371;28;20656;-61
2023/06/13 03:06:20;;;;;;;5.33;4.00;;;21.30;99.90;;;;;;5026237;28;20231;-61
2023/06/13 03:08:48;;;;;;;5.83;4.20;;;21.20;99.90;;;;;;5026167;28;20211;-62
2023/06/13 03:11:15;;;;;;;5.67;4.40;;;21.20;99.90;;;;;;5029539;28;20253;-61
2023/06/13 03:13:42;;;;;;;5.10;3.77;;;21.20;99.90;;;;;;5023685;28;20265;-61
2023/06/13 03:16:09;;;;;;;4.80;4.20;;;21.20;99.90;;;;;;5025741;28;20235;-61
2023/06/13 03:18:36;;;;;;;6.70;3.77;;;21.10;99.90;;;;;;5021436;28;20193;-61
2023/06/13 03:21:04;;;;;;;6.87;3.97;;;21.10;99.90;;;;;;5026705;28;20196;-61
2023/06/13 03:23:32;;;;;;;5.27;4.13;;;21.10;99.90;;;;;;5024296;28;20228;-61
2023/06/13 03:26:00;;;;;;;10.17;4.47;;;21.10;99.90;;;;;;5024713;28;20301;-61
2023/06/13 03:28:27;;;;;;;6.03;4.40;;;21.10;99.90;;;;;;5022032;28;20303;-61
2023/06/13 03:31:00;;;;;;;8.17;4.70;;;21.10;99.90;;;;;;5021386;28;20214;-61
2023/06/13 03:33:34;;;;;;;7.43;4.30;;;21.10;99.90;;;;;;5017660;28;20247;-62
2023/06/13 03:36:02;;;;;;;5.30;4.73;;;21.00;99.90;;;;;;5016731;28;20215;-63
2023/06/13 03:38:29;;;;;;;6.47;4.20;;;21.00;99.90;;;;;;5023500;28;20208;-60
2023/06/13 03:40:56;;;;;;;5.53;4.87;;;20.90;99.90;;;;;;5018238;28;20242;-61
2023/06/13 03:43:27;;;;;;;6.03;4.13;;;20.90;99.90;;;;;;5023574;28;20193;-61
2023/06/13 03:45:54;;;;;;;8.07;4.20;;;20.90;99.90;;;;;;5018857;28;20213;-60
2023/06/13 03:48:21;;;;;;;8.17;4.57;;;20.80;99.90;;;;;;5024605;28;20219;-60
2023/06/13 03:50:49;;;;;;;9.93;5.20;;;20.80;99.90;;;;;;5022071;28;20738;-62
2023/06/13 03:53:15;;;;;;;5.40;4.60;;;20.70;99.90;;;;;;5024422;28;20232;-61
2023/06/13 03:55:53;;;;;;;5.47;4.60;;;20.60;99.90;;;;;;5025288;28;20278;-61
2023/06/13 03:58:25;;;;;;;5.83;4.20;;;20.70;99.90;;;;;;5021693;28;20197;-60
2023/06/13 04:00:54;;;;;;;5.53;4.63;;;20.50;99.90;;;;;;5024500;28;20203;-62
2023/06/13 04:03:21;;;;;;;4.80;3.93;;;20.60;99.90;;;;;;5022786;28;20200;-66
2023/06/13 04:05:48;;;;;;;6.83;4.70;;;20.50;99.90;;;;;;5022380;28;20215;-60
2023/06/13 04:08:19;;;;;;;5.20;4.40;;;20.60;99.90;;;;;;5023949;28;20326;-61
2023/06/13 04:10:49;;;;;;;5.87;4.13;;;20.70;99.90;;;;;;5020337;28;20240;-61
2023/06/13 04:13:16;;;;;;;6.30;4.23;;;20.60;99.90;;;;;;5016618;28;20205;-61
2023/06/13 04:15:43;;;;;;;5.20;4.00;;;20.50;99.90;;;;;;5028596;28;20236;-61
2023/06/13 04:18:10;;;;;;;4.67;3.97;;;20.60;99.90;;;;;;5026756;28;20204;-62
2023/06/13 04:20:38;;;;;;;10.70;4.90;;;20.60;99.90;;;;;;5028326;28;20677;-61
2023/06/13 04:23:06;;;;;;;5.63;4.53;;;20.50;99.90;;;;;;5024336;28;20244;-63
2023/06/13 04:25:33;;;;;;;5.77;3.93;;;20.50;99.90;;;;;;5024818;28;20688;-65
2023/06/13 04:28:00;;;;;;;5.97;4.50;;;20.60;99.90;;;;;;5024615;28;20291;-61
2023/06/13 04:30:29;;;;;;;5.90;4.23;;;20.50;99.90;;;;;;5017767;28;20208;-65
2023/06/13 04:32:57;;;;;;;6.50;4.87;;;20.40;99.90;;;;;;5021319;28;20224;-62
2023/06/13 04:35:25;;;;;;;5.83;5.23;;;20.20;99.90;;;;;;5025262;28;20366;-62
2023/06/13 04:37:52;;;;;;;6.87;5.70;;;20.10;99.90;;;;;;5024762;28;20217;-61
2023/06/13 04:40:20;;;;;;;6.00;5.40;;;19.80;99.90;;;;;;5026430;28;20208;-61
2023/06/13 04:42:51;;;;;;;7.57;6.40;;;19.80;99.90;;;;;;5023734;28;20224;-61
2023/06/13 04:45:20;;;;;;;6.87;5.93;;;19.70;99.90;;;;;;5025535;28;20281;-60
2023/06/13 04:47:48;;;;;;;7.50;6.17;;;19.50;99.90;;;;;;5019804;28;20216;-61
2023/06/13 04:50:28;;;;;;;8.47;6.47;;;19.70;99.90;;;;;;5025567;28;20204;-61
2023/06/13 04:52:56;;;;;;;7.17;6.43;;;19.90;99.90;;;;;;5020709;28;20965;-62
2023/06/13 04:55:26;;;;;;;8.67;6.20;;;19.90;99.90;;;;;;5021036;28;20208;-61
2023/06/13 04:58:03;;;;;;;10.33;6.70;;;19.90;99.90;;;;;;5026884;28;20673;-61
2023/06/13 05:00:33;;;;;;;9.40;6.10;;;19.90;99.90;;;;;;5022769;28;20467;-60
2023/06/13 05:03:01;;;;;;;7.50;5.87;;;20.00;99.90;;;;;;5020527;28;20657;-61
2023/06/13 05:05:28;;;;;;;7.90;5.70;;;19.80;99.90;;;;;;5021308;28;20291;-62
2023/06/13 05:08:02;;;;;;;8.93;6.03;;;20.20;99.90;;;;;;5019119;28;20280;-62
2023/06/13 05:10:33;;;;;;;7.47;5.77;;;20.20;99.90;;;;;;5017560;28;21180;-61
2023/06/13 05:13:01;;;;;;;7.13;6.37;;;20.30;99.90;;;;;;5025323;28;20363;-61
2023/06/13 05:15:28;;;;;;;7.27;5.77;;;20.20;99.90;;;;;;5023668;28;20240;-61
2023/06/13 05:17:58;;;;;;;7.47;5.77;;;20.20;99.90;;;;;;5016277;28;20223;-61
2023/06/13 05:20:35;;;;;;;9.30;5.90;;;20.40;99.90;;;;;;5024831;28;20197;-61
2023/06/13 05:23:02;;;;;;;6.30;5.10;;;20.50;99.90;;;;;;5018411;28;20223;-61
2023/06/13 05:25:30;;;;;;;12.57;5.73;;;20.60;99.90;;;;;;5016775;28;20235;-61
2023/06/13 05:27:57;;;;;;;5.60;4.77;;;20.70;99.90;;;;;;5022874;28;20287;-61
2023/06/13 05:30:33;;;;;;;6.37;5.13;;;20.80;99.90;;;;;;5018919;28;20204;-61
2023/06/13 05:33:03;;;;;;;5.83;4.60;;;21.00;99.90;;;;;;5021866;28;20229;-61
2023/06/13 05:35:30;;;;;;;5.83;4.57;;;20.90;99.90;;;;;;5020285;28;20220;-61
2023/06/13 05:38:22;;;;;;;5.37;4.87;;;21.10;99.90;;;;;;4660891;28;10000333;-60
2023/06/13 05:40:59;;;;;;;6.63;4.83;;;21.30;99.90;;;;;;5006180;28;21264;-61
2023/06/13 05:43:31;;;;;;;5.10;4.60;;;21.40;99.90;;;;;;5014672;28;20261;-62
2023/06/13 05:45:58;;;;;;;5.33;4.43;;;21.50;99.90;;;;;;5016263;28;20580;-60
2023/06/13 05:48:26;;;;;;;7.35;5.18;;;21.60;99.90;;;;;;5012167;28;20985;-61
2023/06/13 05:50:53;;;;;;;5.33;4.20;;;21.70;99.90;;;;;;5015344;28;20288;-60
2023/06/13 05:53:20;;;;;;;7.60;4.90;;;21.70;99.90;;;;;;5030848;28;20847;-60
2023/06/13 05:55:53;;;;;;;5.47;4.43;;;21.80;99.90;;;;;;5017721;28;20258;-63
2023/06/13 05:58:21;;;;;;;8.60;4.70;;;21.80;99.90;;;;;;5006511;28;20223;-60
2023/06/13 06:00:48;;;;;;;7.33;4.50;;;21.60;99.90;;;;;;5002684;28;20217;-61
2023/06/13 06:03:15;;;;;;;8.13;4.93;;;21.60;99.90;;;;;;5008074;28;20208;-60
2023/06/13 06:05:45;;;;;;;5.07;4.57;;;21.70;99.90;;;;;;5026390;28;20212;-61
2023/06/13 06:08:12;;;;;;;7.17;4.70;;;21.70;99.90;;;;;;5023268;28;22418;-61
2023/06/13 06:10:39;;;;;;;5.80;4.57;;;21.70;99.90;;;;;;5024039;28;20360;-61
2023/06/13 06:13:06;;;;;;;7.17;4.37;;;22.00;99.90;;;;;;5025888;28;20224;-60
2023/06/13 06:15:36;;;;;;;6.30;4.87;;;22.00;99.90;;;;;;5024103;28;20251;-61
2023/06/13 06:18:03;;;;;;;5.93;4.67;;;21.90;99.90;;;;;;5025237;28;20208;-60
2023/06/13 06:20:31;;;;;;;5.83;4.40;;;22.00;99.90;;;;;;5028257;28;20232;-60
2023/06/13 06:22:58;;;;;;;8.97;4.67;;;22.20;99.90;;;;;;5024134;28;20208;-62
2023/06/13 06:25:25;;;;;;;5.67;4.13;;;22.30;99.90;;;;;;5027064;28;20205;-66
2023/06/13 06:27:53;;;;;;;5.00;4.07;;;22.40;99.90;;;;;;5026826;28;20713;-61
2023/06/13 06:30:20;;;;;;;5.83;4.30;;;22.20;99.90;;;;;;5027229;28;20251;-60
2023/06/13 06:32:51;;;;;;;5.50;4.30;;;22.10;99.90;;;;;;5008922;28;20744;-61
2023/06/13 06:35:18;;;;;;;5.77;4.87;;;22.30;99.90;;;;;;5028896;28;20258;-60
2023/06/13 06:37:46;;;;;;;4.90;4.40;;;22.40;99.90;;;;;;5027351;28;20621;-61
2023/06/13 06:40:13;;;;;;;4.43;3.73;;;22.50;99.90;;;;;;5024473;28;20205;-61
2023/06/13 06:42:41;;;;;;;6.57;4.27;;;22.80;99.90;;;;;;5026037;28;20198;-61
2023/06/13 06:45:12;;;;;;;4.53;4.13;;;23.00;99.90;;;;;;5026178;28;20210;-61
2023/06/13 06:47:40;;;;;;;8.33;4.53;;;23.20;99.90;;;;;;5027153;28;20234;-61
2023/06/13 06:50:07;;;;;;;7.00;4.20;;;23.20;99.90;;;;;;5025644;28;20686;-61
2023/06/13 06:52:35;;;;;;;5.17;3.83;;;23.30;99.90;;;;;;5027443;28;20299;-61
2023/06/13 06:55:02;;;;;;;5.80;4.37;;;23.40;99.90;;;;;;5024391;28;20296;-62
2023/06/13 06:57:29;;;;;;;4.90;4.07;;;23.60;99.90;;;;;;5026425;28;20305;-62
2023/06/13 06:59:56;;;;;;;6.07;3.90;;;23.70;99.90;;;;;;5024639;28;20292;-63
2023/06/13 07:02:23;;;;;;;4.83;4.03;;;23.70;99.90;;;;;;5024974;28;20287;-64
2023/06/13 07:04:50;;;;;;;9.67;4.23;;;23.80;99.90;;;;;;5027115;28;20205;-62
2023/06/13 07:07:17;;;;;;;7.00;4.50;;;24.00;99.90;;;;;;5027361;28;20292;-66
2023/06/13 07:09:44;;;;;;;7.03;4.57;;;24.00;99.90;;;;;;5028788;28;20236;-63
2023/06/13 07:12:11;;;;;;;5.88;3.97;;;24.10;99.90;;;;;;5028873;28;20583;-66
2023/06/13 07:14:38;;;;;;;7.70;4.23;;;24.40;99.90;;;;;;5029398;28;20200;-62
2023/06/13 07:17:05;;;;;;;7.93;4.30;;;24.60;99.90;;;;;;5015434;28;20813;-62
2023/06/13 07:19:33;;;;;;;8.27;4.50;;;24.60;99.90;;;;;;5026896;28;20201;-62
2023/06/13 07:22:00;;;;;;;7.18;4.50;;;24.80;99.90;;;;;;5025393;28;20738;-59
2023/06/13 07:24:32;;;;;;;5.47;4.82;;;24.60;99.90;;;;;;5021561;28;20299;-60
2023/06/13 07:26:59;;;;;;;7.55;4.30;;;24.50;99.90;;;;;;5019324;28;20496;-62
2023/06/13 07:29:26;;;;;;;5.93;3.80;;;24.60;99.90;;;;;;5022903;28;20237;-59
2023/06/13 07:31:53;;;;;;;5.72;4.35;;;25.60;99.90;;;;;;5029444;28;20212;-59
2023/06/13 07:34:20;;;;;;;4.60;4.07;;;26.30;99.90;;;;;;5027309;28;20275;-63
2023/06/13 07:37:07;;;;;;;6.25;4.65;;;26.40;99.90;;;;;;5030129;28;20311;-60
2023/06/13 07:39:34;;;;;;;4.80;4.22;;;26.90;99.90;;;;;;5028795;28;20189;-60
2023/06/13 07:42:02;;;;;;;4.63;4.10;;;27.70;99.90;;;;;;5030314;28;20205;-61
2023/06/13 07:44:29;;;;;;;5.85;3.90;;;27.50;99.90;;;;;;5029686;28;20211;-60
2023/06/13 07:46:56;;;;;;;7.70;3.97;;;27.40;99.90;;;;;;5029068;28;20318;-59
2023/06/13 07:49:23;;;;;;;9.20;3.85;;;27.00;99.90;;;;;;5030613;28;20304;-60
2023/06/13 07:51:50;;;;;;;4.78;3.78;;;28.00;99.90;;;;;;5028553;28;20220;-60
2023/06/13 07:54:17;;;;;;;5.03;4.15;;;28.40;99.90;;;;;;5029042;28;20216;-59
2023/06/13 07:56:51;;;;;;;4.95;4.07;;;29.30;99.90;;;;;;5027881;28;20240;-60
2023/06/13 07:59:18;;;;;;;5.43;4.50;;;28.50;99.90;;;;;;5027689;28;20203;-60
2023/06/13 08:01:46;;;;;;;5.93;4.60;;;28.30;99.90;;;;;;5028965;28;20383;-60
2023/06/13 08:04:13;;;;;;;7.15;3.92;;;27.80;99.90;;;;;;5026412;28;20287;-61
2023/06/13 08:06:40;;;;;;;7.38;4.00;;;28.30;99.90;;;;;;5026005;28;20203;-59
2023/06/13 08:09:11;;;;;;;4.68;4.15;;;28.00;99.90;;;;;;5026126;28;20236;-59
2023/06/13 08:11:38;;;;;;;5.97;4.25;;;28.40;99.90;;;;;;5044187;28;20730;-63
2023/06/13 08:14:12;;;;;;;6.35;4.43;;;28.40;99.90;;;;;;5029253;28;20272;-60
2023/06/13 08:16:40;;;;;;;6.72;3.90;;;29.00;99.90;;;;;;5009325;28;20210;-60
2023/06/13 08:19:10;;;;;;;5.20;3.70;;;29.50;99.90;;;;;;5027875;28;20201;-60
2023/06/13 08:21:37;;;;;;;4.88;4.28;;;30.00;99.90;;;;;;5030040;28;20205;-59
2023/06/13 08:24:04;;;;;;;5.47;4.45;;;30.20;99.90;;;;;;5022785;28;20211;-61
2023/06/13 08:26:32;;;;;;;5.95;4.38;;;29.80;99.90;;;;;;5025963;28;20201;-60
2023/06/13 08:29:03;;;;;;;6.20;3.78;;;29.90;99.90;;;;;;5025134;28;20201;-61
2023/06/13 08:31:40;;;;;;;8.85;4.47;;;30.90;99.90;;;;;;5025869;28;20197;-62
2023/06/13 08:34:18;;;;;;;7.40;4.45;;;30.70;99.90;;;;;;5020123;28;20684;-60
2023/06/13 08:36:46;;;;;;;4.25;3.83;;;30.50;99.90;;;;;;5025062;28;20200;-60
2023/06/13 08:39:16;;;;;;;7.95;3.80;;;30.00;99.90;;;;;;5026511;28;20200;-60
2023/06/13 08:41:44;;;;;;;6.18;3.92;;;29.80;99.90;;;;;;5025943;28;20292;-63
2023/06/13 08:44:12;;;;;;;4.93;4.28;;;29.60;99.90;;;;;;5027456;28;20232;-60
2023/06/13 08:46:38;;;;;;;4.70;4.18;;;29.60;99.90;;;;;;5026639;28;20204;-61
2023/06/13 08:49:06;;;;;;;4.65;4.07;;;29.70;99.90;;;;;;5029585;28;20254;-60
2023/06/13 08:51:33;;;;;;;6.57;4.20;;;28.90;99.90;;;;;;5020445;28;20254;-60
2023/06/13 08:54:02;;;;;;;7.05;4.05;;;29.30;99.90;;;;;;5028444;28;20204;-63
2023/06/13 08:56:35;;;;;;;4.35;3.92;;;29.90;99.90;;;;;;5027524;28;20204;-61
2023/06/13 08:59:13;;;;;;;5.05;4.55;;;30.70;99.90;;;;;;5026060;28;20591;-61
2023/06/13 09:01:43;;;;;;;6.95;4.28;;;29.70;99.90;;;;;;5026954;28;20196;-64
2023/06/13 09:04:11;;;;;;;10.43;4.60;;;30.40;99.90;;;;;;5026821;28;20212;-61
2023/06/13 09:06:39;;;;;;;4.60;4.20;;;30.30;99.90;;;;;;5026468;28;20323;-61
2023/06/13 09:09:07;;;;;;;5.75;4.20;;;31.10;99.90;;;;;;5027587;28;20213;-61
2023/06/13 09:11:38;;;;;;;5.63;4.35;;;30.80;99.90;;;;;;5028359;28;20214;-61
2023/06/13 09:14:08;;;;;;;7.80;4.85;;;30.60;99.90;;;;;;5025434;28;20205;-61
2023/06/13 09:16:35;;;;;;;5.18;4.20;;;30.70;99.90;;;;;;5027494;28;20574;-65
2023/06/13 09:19:02;;;;;;;4.65;4.25;;;31.40;99.90;;;;;;5027669;28;20229;-64
2023/06/13 09:21:29;;;;;;;5.28;4.15;;;30.90;99.90;;;;;;5028057;28;20212;-61
2023/06/13 09:23:56;;;;;;;5.47;3.78;;;30.00;99.90;;;;;;5027223;28;20200;-61
2023/06/13 09:26:25;;;;;;;5.88;4.28;;;30.00;99.90;;;;;;5028787;28;20227;-59
2023/06/13 09:28:52;;;;;;;5.88;3.83;;;29.80;99.90;;;;;;5026052;28;20201;-60
2023/06/13 09:31:20;;;;;;;6.43;4.00;;;30.10;99.90;;;;;;5028206;28;20213;-60
2023/06/13 09:33:47;;;;;;;4.93;3.95;;;30.20;99.90;;;;;;5026579;28;20630;-59
2023/06/13 09:36:14;;;;;;;4.47;4.07;;;29.80;99.90;;;;;;5027785;28;20212;-60
2023/06/13 09:38:42;;;;;;;5.43;4.20;;;29.60;99.90;;;;;;5026894;28;20294;-64
2023/06/13 09:41:16;;;;;;;6.80;3.72;;;29.90;99.90;;;;;;5026568;28;20204;-59
2023/06/13 09:43:43;;;;;;;4.78;3.83;;;29.90;99.90;;;;;;5027567;28;20193;-58
2023/06/13 09:46:12;;;;;;;8.52;4.00;;;29.50;99.90;;;;;;4661485;28;10000892;-55
2023/06/13 09:48:44;;;;;;;6.50;4.13;;;29.60;99.90;;;;;;4999555;28;20429;-55
2023/06/13 09:51:12;;;;;;;7.43;4.40;;;29.50;99.90;;;;;;5006129;28;20212;-56
2023/06/13 09:53:39;;;;;;;6.03;4.13;;;29.30;99.90;;;;;;5010906;28;20648;-55
2023/06/13 09:56:10;;;;;;;5.78;4.00;;;29.30;99.90;;;;;;5003949;28;20354;-55
2023/06/13 09:58:38;;;;;;;6.53;4.30;;;28.50;99.90;;;;;;5008594;28;20587;-55
2023/06/13 10:01:12;;;;;;;5.25;3.83;;;28.50;99.90;;;;;;5001753;28;20196;-55
2023/06/13 10:03:39;;;;;;;6.00;3.90;;;28.80;99.90;;;;;;5015113;28;20219;-55
2023/06/13 10:06:07;;;;;;;7.78;4.45;;;29.30;99.90;;;;;;5011310;28;20207;-57
2023/06/13 10:08:34;;;;;;;4.53;4.13;;;29.20;99.90;;;;;;5006428;28;20209;-56
2023/06/13 10:11:08;;;;;;;6.13;4.70;;;29.30;99.90;;;;;;5011201;28;20232;-56
2023/06/13 10:14:16;;;;;;;6.90;4.15;;;29.50;99.90;;;;;;5013315;28;20196;-57
2023/06/13 10:16:47;;;;;;;6.15;4.10;;;29.20;99.90;;;;;;5018801;28;20199;-57
2023/06/13 10:19:39;;;;;;;5.32;4.35;;;28.80;99.90;;;;;;5008709;28;20287;-56
2023/06/13 10:22:07;;;;;;;7.57;4.20;;;28.80;99.90;;;;;;5013325;28;20235;-57
2023/06/13 10:24:36;;;;;;;5.28;3.90;;;29.00;99.90;;;;;;5013121;28;21964;-62
2023/06/13 10:27:12;;;;;;;4.10;3.70;;;29.40;99.90;;;;;;5013244;28;20577;-56
2023/06/13 10:30:01;;;;;;;6.25;4.28;;;29.10;99.90;;;;;;5017726;28;20208;-56
2023/06/13 10:33:17;;;;;;;5.05;4.05;;;28.70;99.90;;;;;;5015672;28;20639;-57
2023/06/13 10:36:00;;;;;;;5.22;3.90;;;28.60;99.90;;;;;;5018095;28;20774;-56
2023/06/13 10:38:55;;;;;;;5.18;4.15;;;29.50;99.90;;;;;;5006611;28;20216;-59
2023/06/13 10:41:40;;;;;;;4.22;3.75;;;30.10;99.90;;;;;;5014740;28;20222;-59
2023/06/13 10:44:21;;;;;;;5.22;4.10;;;29.80;99.90;;;;;;5019072;28;20612;-56
2023/06/13 10:46:48;;;;;;;5.50;4.00;;;29.10;99.90;;;;;;5016866;28;20207;-56
2023/06/13 10:49:15;;;;;;;7.00;4.18;;;28.90;99.90;;;;;;5013655;28;20572;-55
2023/06/13 10:51:44;;;;;;;6.05;4.25;;;29.70;99.90;;;;;;5019072;28;20759;-56
2023/06/13 10:54:13;;;;;;;4.25;3.85;;;30.40;99.90;;;;;;5015048;28;20645;-56
2023/06/13 10:56:43;;;;;;;5.00;3.78;;;30.10;99.90;;;;;;5018475;28;20237;-56
2023/06/13 10:59:16;;;;;;;6.65;3.50;;;30.10;99.90;;;;;;5017142;28;20308;-56
2023/06/13 11:01:44;;;;;;;4.78;3.50;;;31.00;99.90;;;;;;5015556;28;20223;-55
2023/06/13 11:04:17;;;;;;;8.38;3.70;;;30.90;99.90;;;;;;5014709;28;20259;-61
2023/06/13 11:06:47;;;;;;;5.97;3.75;;;30.20;99.90;;;;;;5015177;28;20285;-56
2023/06/13 11:09:25;;;;;;;6.10;4.05;;;29.80;99.90;;;;;;5009341;28;20616;-58
2023/06/13 11:11:57;;;;;;;6.93;4.00;;;31.00;99.90;;;;;;5004973;28;20204;-57
2023/06/13 11:14:32;;;;;;;4.35;3.95;;;29.70;99.90;;;;;;5009865;28;20337;-56
2023/06/13 11:16:59;;;;;;;4.47;4.07;;;29.40;99.90;;;;;;4997710;28;20596;-55
2023/06/13 11:19:27;;;;;;;5.13;4.03;;;29.30;99.90;;;;;;5017420;28;20216;-56
2023/06/13 11:22:03;;;;;;;6.80;3.92;;;29.40;99.90;;;;;;5019174;28;20198;-56
2023/06/13 11:24:32;;;;;;;4.85;3.85;;;29.70;99.90;;;;;;5014692;28;20223;-59
2023/06/13 11:27:03;;;;;;;4.65;3.97;;;30.10;99.90;;;;;;5014223;28;20636;-60
2023/06/13 11:29:32;;;;;;;4.68;3.85;;;30.50;99.90;;;;;;5023576;28;20212;-59
2023/06/13 11:32:06;;;;;;;5.95;3.47;;;30.60;99.90;;;;;;5007132;28;20212;-60
2023/06/13 11:34:38;;;;;;;4.45;3.83;;;30.20;99.90;;;;;;5018581;28;20232;-63
2023/06/13 11:37:10;;;;;;;5.85;3.78;;;30.50;99.90;;;;;;5019222;28;20216;-59
2023/06/13 11:39:41;;;;;;;5.60;4.20;;;30.30;99.90;;;;;;5018026;28;20309;-58
2023/06/13 11:42:11;;;;;;;4.65;3.58;;;30.30;99.90;;;;;;5017676;28;20800;-59
2023/06/13 11:44:39;;;;;;;5.10;3.58;;;30.60;99.90;;;;;;5015965;28;20534;-60
2023/06/13 11:47:11;;;;;;;3.80;3.40;;;31.40;99.90;;;;;;5019069;28;20196;-59
2023/06/13 11:49:38;;;;;;;4.00;3.60;;;31.70;99.90;;;;;;5020280;28;20746;-59
2023/06/13 11:52:15;;;;;;;3.75;3.40;;;31.00;99.90;;;;;;5017819;28;20335;-59
2023/06/13 11:54:47;;;;;;;4.03;3.40;;;31.50;99.90;;;;;;5016172;28;20220;-58
2023/06/13 11:57:15;;;;;;;3.90;3.45;;;30.60;99.90;;;;;;5028096;28;20219;-60
2023/06/13 11:59:43;;;;;;;3.95;3.53;;;30.80;99.90;;;;;;5019368;28;20685;-59
2023/06/13 12:02:14;;;;;;;4.00;3.60;;;31.00;99.90;;;;;;5014356;28;20221;-59
2023/06/13 12:04:43;;;;;;;5.63;3.55;;;30.50;99.90;;;;;;5011124;28;20611;-59
2023/06/13 12:07:17;;;;;;;6.43;3.42;;;30.50;99.90;;;;;;5020796;28;20196;-59
2023/06/13 12:09:44;;;;;;;6.97;3.45;;;30.70;99.90;;;;;;5009974;28;20817;-59
2023/06/13 12:12:11;;;;;;;6.50;4.22;;;30.30;99.90;;;;;;5011246;28;20208;-58
2023/06/13 12:14:38;;;;;;;4.18;3.55;;;30.00;99.90;;;;;;5021520;28;20207;-59
2023/06/13 12:17:09;;;;;;;6.80;4.40;;;30.40;99.90;;;;;;5018773;28;20296;-63
2023/06/13 12:19:36;;;;;;;5.53;3.58;;;30.90;99.90;;;;;;5019617;28;20220;-64
2023/06/13 12:22:04;;;;;;;3.90;3.60;;;30.80;99.90;;;;;;5019479;28;20203;-64
2023/06/13 12:24:31;;;;;;;5.15;4.10;;;30.30;99.90;;;;;;5016481;28;20770;-63
2023/06/13 12:26:58;;;;;;;4.28;3.78;;;30.40;99.90;;;;;;5014668;28;20292;-59
2023/06/13 12:29:28;;;;;;;5.40;3.85;;;31.20;99.90;;;;;;5015808;28;20673;-60
2023/06/13 12:32:00;;;;;;;5.65;3.33;;;31.40;99.90;;;;;;5012804;28;20205;-60
2023/06/13 12:34:29;;;;;;;4.45;3.65;;;31.50;99.90;;;;;;5018785;28;20217;-61
2023/06/13 12:37:14;;;;;;;5.30;3.80;;;31.30;99.90;;;;;;5022755;28;20694;-60
2023/06/13 12:40:03;;;;;;;5.47;3.50;;;30.30;99.90;;;;;;5022537;28;20248;-61
2023/06/13 12:42:30;;;;;;;3.97;3.65;;;30.80;99.90;;;;;;5017141;28;20725;-60
2023/06/13 12:44:57;;;;;;;4.60;3.97;;;31.20;99.90;;;;;;5014998;28;20196;-61
2023/06/13 12:47:24;;;;;;;5.03;3.60;;;30.40;99.90;;;;;;5014126;28;20653;-60
2023/06/13 12:49:51;;;;;;;7.82;3.58;;;31.00;99.90;;;;;;5011464;28;20208;-60
2023/06/13 12:52:21;;;;;;;3.55;3.25;;;30.50;99.90;;;;;;5020649;28;20204;-60
2023/06/13 12:54:48;;;;;;;5.28;4.00;;;30.40;99.90;;;;;;5008660;28;20209;-60
2023/06/13 12:57:16;;;;;;;5.25;3.95;;;30.00;99.90;;;;;;5016583;28;20208;-60
2023/06/13 12:59:46;;;;;;;4.32;3.80;;;29.90;99.90;;;;;;4994689;28;20270;-59